Terminal Aerodrome Forecast
Issued by NWS Austin/San Antonio, TX

Home | Current Version | Previous Version | Text Only | Print | Product List | Glossary On
Versions: 1 2 3 4 5 6 7 8 9 10 11 12 13 14 15 16 17 18 19 20
000
FTUS44 KEWX 020600 AAA
TAFSAT
TAF AMD
KSAT 020651Z 0207/0312 16007KT P6SM BKN015
     FM021600 16010KT P6SM BKN040
     FM022100 14014KT P6SM SCT060 SCT250
     FM030100 14014G24KT P6SM FEW060
     FM030400 15007KT P6SM SKC
     FM030900 17007KT P6SM BKN015=

USA.gov is the U.S. government's official web portal to all federal, state and local government web resources and services.